sensor_id;sensor_type;location;lat;lon;timestamp;P1;durP1;ratioP1;P2;durP2;ratioP2
7511;SDS011;9999;48.780;9.146;2023-02-23T00:01:10;15.43;;;7.43;;
7511;SDS011;9999;48.780;9.146;2023-02-23T00:03:38;14.43;;;6.07;;
7511;SDS011;9999;48.780;9.146;2023-02-23T00:06:06;13.47;;;7.13;;
7511;SDS011;9999;48.780;9.146;2023-02-23T00:08:34;11.23;;;7.37;;
7511;SDS011;9999;48.780;9.146;2023-02-23T00:11:02;12.30;;;7.37;;
7511;SDS011;9999;48.780;9.146;2023-02-23T00:13:30;13.20;;;6.80;;
7511;SDS011;9999;48.780;9.146;2023-02-23T00:16:02;11.87;;;5.87;;
7511;SDS011;9999;48.780;9.146;2023-02-23T00:18:31;9.10;;;5.67;;
7511;SDS011;9999;48.780;9.146;2023-02-23T00:21:09;10.07;;;6.03;;
7511;SDS011;9999;48.780;9.146;2023-02-23T00:23:41;12.07;;;6.60;;
7511;SDS011;9999;48.780;9.146;2023-02-23T00:26:09;10.10;;;5.93;;
7511;SDS011;9999;48.780;9.146;2023-02-23T00:28:38;11.23;;;6.43;;
7511;SDS011;9999;48.780;9.146;2023-02-23T00:31:07;8.37;;;5.57;;
7511;SDS011;9999;48.780;9.146;2023-02-23T00:33:37;13.97;;;5.97;;
7511;SDS011;9999;48.780;9.146;2023-02-23T00:36:07;15.50;;;7.40;;
7511;SDS011;9999;48.780;9.146;2023-02-23T00:38:37;10.70;;;6.57;;
7511;SDS011;9999;48.780;9.146;2023-02-23T00:41:05;8.57;;;5.67;;
7511;SDS011;9999;48.780;9.146;2023-02-23T00:43:33;11.70;;;5.20;;
7511;SDS011;9999;48.780;9.146;2023-02-23T00:46:01;13.37;;;6.10;;
7511;SDS011;9999;48.780;9.146;2023-02-23T00:48:30;8.73;;;5.80;;
7511;SDS011;9999;48.780;9.146;2023-02-23T00:50:59;9.53;;;6.50;;
7511;SDS011;9999;48.780;9.146;2023-02-23T00:53:28;11.27;;;6.27;;
7511;SDS011;9999;48.780;9.146;2023-02-23T00:55:55;11.33;;;6.47;;
7511;SDS011;9999;48.780;9.146;2023-02-23T00:58:22;10.07;;;6.80;;
7511;SDS011;9999;48.780;9.146;2023-02-23T01:00:50;10.60;;;6.17;;
7511;SDS011;9999;48.780;9.146;2023-02-23T01:03:19;11.60;;;6.47;;
7511;SDS011;9999;48.780;9.146;2023-02-23T01:05:46;12.07;;;6.60;;
7511;SDS011;9999;48.780;9.146;2023-02-23T01:08:15;23.07;;;8.00;;
7511;SDS011;9999;48.780;9.146;2023-02-23T01:10:43;9.60;;;6.87;;
7511;SDS011;9999;48.780;9.146;2023-02-23T01:13:16;18.83;;;6.80;;
7511;SDS011;9999;48.780;9.146;2023-02-23T01:15:44;11.70;;;6.47;;
7511;SDS011;9999;48.780;9.146;2023-02-23T01:18:12;13.30;;;7.07;;
7511;SDS011;9999;48.780;9.146;2023-02-23T01:20:39;12.10;;;6.00;;
7511;SDS011;9999;48.780;9.146;2023-02-23T01:23:07;10.60;;;7.03;;
7511;SDS011;9999;48.780;9.146;2023-02-23T01:25:38;11.30;;;7.20;;
7511;SDS011;9999;48.780;9.146;2023-02-23T01:28:07;11.33;;;6.53;;
7511;SDS011;9999;48.780;9.146;2023-02-23T01:30:36;8.90;;;5.77;;
7511;SDS011;9999;48.780;9.146;2023-02-23T01:33:05;10.50;;;6.73;;
7511;SDS011;9999;48.780;9.146;2023-02-23T01:35:32;11.50;;;5.73;;
7511;SDS011;9999;48.780;9.146;2023-02-23T01:37:58;10.30;;;7.63;;
7511;SDS011;9999;48.780;9.146;2023-02-23T01:40:26;10.67;;;6.57;;
7511;SDS011;9999;48.780;9.146;2023-02-23T01:42:58;9.37;;;5.53;;
7511;SDS011;9999;48.780;9.146;2023-02-23T01:45:32;14.47;;;6.97;;
7511;SDS011;9999;48.780;9.146;2023-02-23T01:48:01;8.03;;;5.33;;
7511;SDS011;9999;48.780;9.146;2023-02-23T01:50:35;9.93;;;5.57;;
7511;SDS011;9999;48.780;9.146;2023-02-23T01:53:07;14.67;;;5.73;;
7511;SDS011;9999;48.780;9.146;2023-02-23T01:55:35;16.23;;;6.63;;
7511;SDS011;9999;48.780;9.146;2023-02-23T01:58:06;8.73;;;6.00;;
7511;SDS011;9999;48.780;9.146;2023-02-23T02:00:39;10.37;;;6.17;;
7511;SDS011;9999;48.780;9.146;2023-02-23T02:03:09;10.27;;;5.63;;
7511;SDS011;9999;48.780;9.146;2023-02-23T02:05:43;8.40;;;6.10;;
7511;SDS011;9999;48.780;9.146;2023-02-23T02:08:12;11.60;;;6.00;;
7511;SDS011;9999;48.780;9.146;2023-02-23T02:10:41;12.80;;;6.27;;
7511;SDS011;9999;48.780;9.146;2023-02-23T02:13:16;9.03;;;5.47;;
7511;SDS011;9999;48.780;9.146;2023-02-23T02:15:53;8.80;;;6.00;;
7511;SDS011;9999;48.780;9.146;2023-02-23T02:18:44;12.60;;;6.87;;
7511;SDS011;9999;48.780;9.146;2023-02-23T02:24:26;8.70;;;6.03;;
7511;SDS011;9999;48.780;9.146;2023-02-23T02:27:35;10.73;;;6.40;;
7511;SDS011;9999;48.780;9.146;2023-02-23T02:30:45;9.03;;;5.47;;
7511;SDS011;9999;48.780;9.146;2023-02-23T02:33:24;10.83;;;6.40;;
7511;SDS011;9999;48.780;9.146;2023-02-23T02:39:19;10.50;;;6.03;;
7511;SDS011;9999;48.780;9.146;2023-02-23T02:42:01;11.40;;;6.10;;
7511;SDS011;9999;48.780;9.146;2023-02-23T02:44:41;12.23;;;6.37;;
7511;SDS011;9999;48.780;9.146;2023-02-23T02:47:15;12.10;;;6.40;;
7511;SDS011;9999;48.780;9.146;2023-02-23T02:49:47;10.73;;;5.77;;
7511;SDS011;9999;48.780;9.146;2023-02-23T02:52:19;10.43;;;6.00;;
7511;SDS011;9999;48.780;9.146;2023-02-23T02:54:55;12.67;;;6.93;;
7511;SDS011;9999;48.780;9.146;2023-02-23T02:57:27;9.83;;;5.67;;
7511;SDS011;9999;48.780;9.146;2023-02-23T02:59:56;11.87;;;6.80;;
7511;SDS011;9999;48.780;9.146;2023-02-23T03:02:41;10.97;;;6.00;;
7511;SDS011;9999;48.780;9.146;2023-02-23T03:05:27;8.23;;;5.87;;
7511;SDS011;9999;48.780;9.146;2023-02-23T03:08:18;8.67;;;5.50;;
7511;SDS011;9999;48.780;9.146;2023-02-23T03:11:06;10.40;;;6.30;;
7511;SDS011;9999;48.780;9.146;2023-02-23T03:13:57;12.57;;;5.63;;
7511;SDS011;9999;48.780;9.146;2023-02-23T03:16:53;8.73;;;4.47;;
7511;SDS011;9999;48.780;9.146;2023-02-23T03:19:47;10.87;;;6.53;;
7511;SDS011;9999;48.780;9.146;2023-02-23T03:22:38;12.53;;;5.33;;
7511;SDS011;9999;48.780;9.146;2023-02-23T03:25:33;8.67;;;5.43;;
7511;SDS011;9999;48.780;9.146;2023-02-23T03:28:26;9.67;;;4.90;;
7511;SDS011;9999;48.780;9.146;2023-02-23T03:31:17;7.63;;;4.90;;
7511;SDS011;9999;48.780;9.146;2023-02-23T03:34:08;9.60;;;4.77;;
7511;SDS011;9999;48.780;9.146;2023-02-23T03:37:01;6.77;;;4.97;;
7511;SDS011;9999;48.780;9.146;2023-02-23T03:39:52;12.70;;;5.17;;
7511;SDS011;9999;48.780;9.146;2023-02-23T03:42:43;6.70;;;4.37;;
7511;SDS011;9999;48.780;9.146;2023-02-23T03:45:29;9.03;;;4.97;;
7511;SDS011;9999;48.780;9.146;2023-02-23T03:48:15;7.20;;;4.57;;
7511;SDS011;9999;48.780;9.146;2023-02-23T03:51:03;9.90;;;4.53;;
7511;SDS011;9999;48.780;9.146;2023-02-23T03:53:52;8.23;;;4.93;;
7511;SDS011;9999;48.780;9.146;2023-02-23T03:56:43;5.27;;;4.37;;
7511;SDS011;9999;48.780;9.146;2023-02-23T03:59:33;9.90;;;4.10;;
7511;SDS011;9999;48.780;9.146;2023-02-23T04:02:21;8.03;;;4.03;;
7511;SDS011;9999;48.780;9.146;2023-02-23T04:05:09;7.20;;;3.93;;
7511;SDS011;9999;48.780;9.146;2023-02-23T04:07:56;6.53;;;3.73;;
7511;SDS011;9999;48.780;9.146;2023-02-23T04:10:45;5.63;;;4.13;;
7511;SDS011;9999;48.780;9.146;2023-02-23T04:13:33;8.23;;;4.07;;
7511;SDS011;9999;48.780;9.146;2023-02-23T04:16:06;6.17;;;3.47;;
7511;SDS011;9999;48.780;9.146;2023-02-23T04:18:33;10.10;;;4.10;;
7511;SDS011;9999;48.780;9.146;2023-02-23T04:21:02;6.53;;;4.10;;
7511;SDS011;9999;48.780;9.146;2023-02-23T04:23:30;7.03;;;3.93;;
7511;SDS011;9999;48.780;9.146;2023-02-23T04:25:57;5.80;;;3.57;;
7511;SDS011;9999;48.780;9.146;2023-02-23T04:28:25;8.43;;;4.50;;
7511;SDS011;9999;48.780;9.146;2023-02-23T04:30:52;6.23;;;3.73;;
7511;SDS011;9999;48.780;9.146;2023-02-23T04:33:21;3.40;;;2.53;;
7511;SDS011;9999;48.780;9.146;2023-02-23T04:35:50;5.23;;;3.13;;
7511;SDS011;9999;48.780;9.146;2023-02-23T04:38:18;8.73;;;3.50;;
7511;SDS011;9999;48.780;9.146;2023-02-23T04:40:44;6.40;;;3.53;;
7511;SDS011;9999;48.780;9.146;2023-02-23T04:43:11;5.23;;;3.10;;
7511;SDS011;9999;48.780;9.146;2023-02-23T04:45:38;3.40;;;2.70;;
7511;SDS011;9999;48.780;9.146;2023-02-23T04:48:05;3.40;;;2.80;;
7511;SDS011;9999;48.780;9.146;2023-02-23T04:50:34;3.43;;;2.50;;
7511;SDS011;9999;48.780;9.146;2023-02-23T04:53:01;4.33;;;2.90;;
7511;SDS011;9999;48.780;9.146;2023-02-23T04:55:28;3.90;;;2.40;;
7511;SDS011;9999;48.780;9.146;2023-02-23T04:57:56;4.57;;;2.53;;
7511;SDS011;9999;48.780;9.146;2023-02-23T05:00:24;4.97;;;3.27;;
7511;SDS011;9999;48.780;9.146;2023-02-23T05:02:51;6.73;;;2.73;;
7511;SDS011;9999;48.780;9.146;2023-02-23T05:05:18;3.97;;;2.50;;
7511;SDS011;9999;48.780;9.146;2023-02-23T05:07:46;2.40;;;2.20;;
7511;SDS011;9999;48.780;9.146;2023-02-23T05:10:13;6.67;;;3.00;;
7511;SDS011;9999;48.780;9.146;2023-02-23T05:12:40;7.83;;;2.83;;
7511;SDS011;9999;48.780;9.146;2023-02-23T05:15:07;4.37;;;2.53;;
7511;SDS011;9999;48.780;9.146;2023-02-23T05:17:36;5.93;;;3.60;;
7511;SDS011;9999;48.780;9.146;2023-02-23T05:20:05;4.07;;;2.77;;
7511;SDS011;9999;48.780;9.146;2023-02-23T05:22:32;4.00;;;2.40;;
7511;SDS011;9999;48.780;9.146;2023-02-23T05:25:00;6.17;;;2.67;;
7511;SDS011;9999;48.780;9.146;2023-02-23T05:27:28;4.03;;;2.53;;
7511;SDS011;9999;48.780;9.146;2023-02-23T05:29:55;3.33;;;3.03;;
7511;SDS011;9999;48.780;9.146;2023-02-23T05:32:21;7.27;;;3.80;;
7511;SDS011;9999;48.780;9.146;2023-02-23T05:34:48;5.20;;;2.97;;
7511;SDS011;9999;48.780;9.146;2023-02-23T05:37:15;4.70;;;3.37;;
7511;SDS011;9999;48.780;9.146;2023-02-23T05:39:42;6.00;;;3.30;;
7511;SDS011;9999;48.780;9.146;2023-02-23T05:42:10;5.93;;;3.27;;
7511;SDS011;9999;48.780;9.146;2023-02-23T05:44:36;7.47;;;3.07;;
7511;SDS011;9999;48.780;9.146;2023-02-23T05:47:03;3.20;;;2.77;;
7511;SDS011;9999;48.780;9.146;2023-02-23T05:49:30;3.63;;;2.83;;
7511;SDS011;9999;48.780;9.146;2023-02-23T05:51:57;5.37;;;2.47;;
7511;SDS011;9999;48.780;9.146;2023-02-23T05:54:23;6.00;;;2.73;;
7511;SDS011;9999;48.780;9.146;2023-02-23T05:56:51;6.27;;;3.07;;
7511;SDS011;9999;48.780;9.146;2023-02-23T05:59:22;4.23;;;3.03;;
7511;SDS011;9999;48.780;9.146;2023-02-23T06:01:49;4.60;;;3.30;;
7511;SDS011;9999;48.780;9.146;2023-02-23T06:04:16;4.00;;;2.27;;
7511;SDS011;9999;48.780;9.146;2023-02-23T06:06:43;8.10;;;4.20;;
7511;SDS011;9999;48.780;9.146;2023-02-23T06:09:10;3.17;;;2.57;;
7511;SDS011;9999;48.780;9.146;2023-02-23T06:11:37;4.37;;;3.70;;
7511;SDS011;9999;48.780;9.146;2023-02-23T06:14:03;4.90;;;3.03;;
7511;SDS011;9999;48.780;9.146;2023-02-23T06:16:32;5.73;;;3.27;;
7511;SDS011;9999;48.780;9.146;2023-02-23T06:18:58;5.60;;;3.53;;
7511;SDS011;9999;48.780;9.146;2023-02-23T06:21:25;4.80;;;2.67;;
7511;SDS011;9999;48.780;9.146;2023-02-23T06:23:52;4.47;;;2.43;;
7511;SDS011;9999;48.780;9.146;2023-02-23T06:26:18;5.53;;;3.57;;
7511;SDS011;9999;48.780;9.146;2023-02-23T06:28:45;5.87;;;3.27;;
7511;SDS011;9999;48.780;9.146;2023-02-23T06:31:12;4.77;;;2.80;;
7511;SDS011;9999;48.780;9.146;2023-02-23T06:33:40;4.33;;;3.07;;
7511;SDS011;9999;48.780;9.146;2023-02-23T06:36:07;4.53;;;2.50;;
7511;SDS011;9999;48.780;9.146;2023-02-23T06:38:34;3.67;;;2.83;;
7511;SDS011;9999;48.780;9.146;2023-02-23T06:41:05;3.20;;;2.90;;
7511;SDS011;9999;48.780;9.146;2023-02-23T06:43:32;6.17;;;2.70;;
7511;SDS011;9999;48.780;9.146;2023-02-23T06:45:59;4.90;;;3.00;;
7511;SDS011;9999;48.780;9.146;2023-02-23T06:48:26;4.07;;;3.33;;
7511;SDS011;9999;48.780;9.146;2023-02-23T06:50:54;3.47;;;2.67;;
7511;SDS011;9999;48.780;9.146;2023-02-23T06:53:23;4.13;;;3.13;;
7511;SDS011;9999;48.780;9.146;2023-02-23T06:55:50;5.33;;;3.60;;
7511;SDS011;9999;48.780;9.146;2023-02-23T06:58:17;4.73;;;3.67;;
7511;SDS011;9999;48.780;9.146;2023-02-23T07:00:43;4.10;;;2.97;;
7511;SDS011;9999;48.780;9.146;2023-02-23T07:03:11;6.03;;;3.27;;
7511;SDS011;9999;48.780;9.146;2023-02-23T07:05:37;5.43;;;2.90;;
7511;SDS011;9999;48.780;9.146;2023-02-23T07:08:06;4.97;;;3.43;;
7511;SDS011;9999;48.780;9.146;2023-02-23T07:10:33;5.63;;;3.00;;
7511;SDS011;9999;48.780;9.146;2023-02-23T07:13:00;3.83;;;3.27;;
7511;SDS011;9999;48.780;9.146;2023-02-23T07:15:26;9.23;;;4.70;;
7511;SDS011;9999;48.780;9.146;2023-02-23T07:17:53;9.07;;;4.83;;
7511;SDS011;9999;48.780;9.146;2023-02-23T07:20:20;8.73;;;5.00;;
7511;SDS011;9999;48.780;9.146;2023-02-23T07:22:47;7.33;;;5.43;;
7511;SDS011;9999;48.780;9.146;2023-02-23T07:25:16;7.00;;;4.57;;
7511;SDS011;9999;48.780;9.146;2023-02-23T07:27:43;7.63;;;5.00;;
7511;SDS011;9999;48.780;9.146;2023-02-23T07:30:10;11.10;;;4.63;;
7511;SDS011;9999;48.780;9.146;2023-02-23T07:32:38;9.07;;;4.80;;
7511;SDS011;9999;48.780;9.146;2023-02-23T07:35:05;8.73;;;4.57;;
7511;SDS011;9999;48.780;9.146;2023-02-23T07:37:33;5.87;;;3.77;;
7511;SDS011;9999;48.780;9.146;2023-02-23T07:39:59;7.87;;;3.67;;
7511;SDS011;9999;48.780;9.146;2023-02-23T07:42:27;6.50;;;3.90;;
7511;SDS011;9999;48.780;9.146;2023-02-23T07:44:54;7.97;;;3.90;;
7511;SDS011;9999;48.780;9.146;2023-02-23T07:47:21;7.70;;;4.33;;
7511;SDS011;9999;48.780;9.146;2023-02-23T07:49:55;5.80;;;3.30;;
7511;SDS011;9999;48.780;9.146;2023-02-23T07:52:22;5.63;;;4.20;;
7511;SDS011;9999;48.780;9.146;2023-02-23T07:54:49;5.90;;;3.37;;
7511;SDS011;9999;48.780;9.146;2023-02-23T07:57:15;3.77;;;3.03;;
7511;SDS011;9999;48.780;9.146;2023-02-23T07:59:44;8.30;;;3.40;;
7511;SDS011;9999;48.780;9.146;2023-02-23T08:02:11;7.60;;;4.70;;
7511;SDS011;9999;48.780;9.146;2023-02-23T08:04:38;6.93;;;3.00;;
7511;SDS011;9999;48.780;9.146;2023-02-23T08:07:07;4.67;;;2.90;;
7511;SDS011;9999;48.780;9.146;2023-02-23T08:09:34;4.57;;;2.77;;
7511;SDS011;9999;48.780;9.146;2023-02-23T08:12:01;6.80;;;2.97;;
7511;SDS011;9999;48.780;9.146;2023-02-23T08:14:28;5.47;;;3.83;;
7511;SDS011;9999;48.780;9.146;2023-02-23T08:16:56;4.47;;;3.60;;
7511;SDS011;9999;48.780;9.146;2023-02-23T08:19:25;3.37;;;2.63;;
7511;SDS011;9999;48.780;9.146;2023-02-23T08:21:54;6.37;;;3.10;;
7511;SDS011;9999;48.780;9.146;2023-02-23T08:24:21;7.90;;;3.67;;
7511;SDS011;9999;48.780;9.146;2023-02-23T08:26:49;4.43;;;2.70;;
7511;SDS011;9999;48.780;9.146;2023-02-23T08:29:16;3.77;;;3.13;;
7511;SDS011;9999;48.780;9.146;2023-02-23T08:31:43;4.30;;;3.17;;
7511;SDS011;9999;48.780;9.146;2023-02-23T08:34:11;5.67;;;2.97;;
7511;SDS011;9999;48.780;9.146;2023-02-23T08:36:39;5.90;;;3.33;;
7511;SDS011;9999;48.780;9.146;2023-02-23T08:39:06;4.83;;;2.83;;
7511;SDS011;9999;48.780;9.146;2023-02-23T08:41:34;3.67;;;2.33;;
7511;SDS011;9999;48.780;9.146;2023-02-23T08:44:00;5.07;;;2.90;;
7511;SDS011;9999;48.780;9.146;2023-02-23T08:46:27;3.80;;;2.67;;
7511;SDS011;9999;48.780;9.146;2023-02-23T08:48:54;4.17;;;2.63;;
7511;SDS011;9999;48.780;9.146;2023-02-23T08:51:23;5.67;;;2.63;;
7511;SDS011;9999;48.780;9.146;2023-02-23T08:53:50;5.20;;;3.10;;
7511;SDS011;9999;48.780;9.146;2023-02-23T08:56:16;3.93;;;3.07;;
7511;SDS011;9999;48.780;9.146;2023-02-23T08:58:43;5.83;;;3.07;;
7511;SDS011;9999;48.780;9.146;2023-02-23T09:01:14;5.40;;;3.70;;
7511;SDS011;9999;48.780;9.146;2023-02-23T09:03:43;4.47;;;3.10;;
7511;SDS011;9999;48.780;9.146;2023-02-23T09:06:10;5.83;;;3.67;;
7511;SDS011;9999;48.780;9.146;2023-02-23T09:08:40;8.63;;;3.47;;
7511;SDS011;9999;48.780;9.146;2023-02-23T09:11:07;5.37;;;3.00;;
7511;SDS011;9999;48.780;9.146;2023-02-23T09:13:34;6.37;;;2.70;;
7511;SDS011;9999;48.780;9.146;2023-02-23T09:16:01;4.97;;;3.00;;
7511;SDS011;9999;48.780;9.146;2023-02-23T09:18:28;4.93;;;2.67;;
7511;SDS011;9999;48.780;9.146;2023-02-23T09:20:57;5.07;;;3.03;;
7511;SDS011;9999;48.780;9.146;2023-02-23T09:23:26;9.37;;;2.60;;
7511;SDS011;9999;48.780;9.146;2023-02-23T09:25:55;6.87;;;3.23;;
7511;SDS011;9999;48.780;9.146;2023-02-23T09:28:21;3.97;;;3.07;;
7511;SDS011;9999;48.780;9.146;2023-02-23T09:30:48;2.63;;;2.20;;
7511;SDS011;9999;48.780;9.146;2023-02-23T09:33:15;5.00;;;2.80;;
7511;SDS011;9999;48.780;9.146;2023-02-23T09:35:42;6.10;;;3.00;;
7511;SDS011;9999;48.780;9.146;2023-02-23T09:38:09;5.23;;;3.40;;
7511;SDS011;9999;48.780;9.146;2023-02-23T09:40:36;5.00;;;2.80;;
7511;SDS011;9999;48.780;9.146;2023-02-23T09:43:12;5.90;;;3.45;;
7511;SDS011;9999;48.780;9.146;2023-02-23T09:45:45;3.27;;;2.63;;
7511;SDS011;9999;48.780;9.146;2023-02-23T09:48:15;5.30;;;3.00;;
7511;SDS011;9999;48.780;9.146;2023-02-23T09:50:46;3.00;;;2.13;;
7511;SDS011;9999;48.780;9.146;2023-02-23T09:53:26;4.63;;;3.27;;
7511;SDS011;9999;48.780;9.146;2023-02-23T09:55:57;6.43;;;2.92;;
7511;SDS011;9999;48.780;9.146;2023-02-23T09:58:26;4.63;;;2.43;;
7511;SDS011;9999;48.780;9.146;2023-02-23T10:00:59;7.05;;;3.45;;
7511;SDS011;9999;48.780;9.146;2023-02-23T10:03:41;5.70;;;3.17;;
7511;SDS011;9999;48.780;9.146;2023-02-23T10:06:17;2.25;;;1.95;;
7511;SDS011;9999;48.780;9.146;2023-02-23T10:08:47;6.50;;;3.20;;
7511;SDS011;9999;48.780;9.146;2023-02-23T10:11:22;3.35;;;2.28;;
7511;SDS011;9999;48.780;9.146;2023-02-23T10:13:57;6.50;;;3.87;;
7511;SDS011;9999;48.780;9.146;2023-02-23T10:16:56;8.13;;;4.88;;
7511;SDS011;9999;48.780;9.146;2023-02-23T10:19:36;7.05;;;4.25;;
7511;SDS011;9999;48.780;9.146;2023-02-23T10:22:09;7.75;;;4.72;;
7511;SDS011;9999;48.780;9.146;2023-02-23T10:24:39;8.40;;;4.28;;
7511;SDS011;9999;48.780;9.146;2023-02-23T10:27:09;10.02;;;5.30;;
7511;SDS011;9999;48.780;9.146;2023-02-23T10:29:44;6.72;;;3.55;;
7511;SDS011;9999;48.780;9.146;2023-02-23T10:32:16;8.82;;;4.60;;
7511;SDS011;9999;48.780;9.146;2023-02-23T10:34:46;6.00;;;3.70;;
7511;SDS011;9999;48.780;9.146;2023-02-23T10:37:18;13.57;;;4.85;;
7511;SDS011;9999;48.780;9.146;2023-02-23T10:39:45;10.15;;;4.95;;
7511;SDS011;9999;48.780;9.146;2023-02-23T10:42:14;8.88;;;4.18;;
7511;SDS011;9999;48.780;9.146;2023-02-23T10:44:46;6.40;;;3.60;;
7511;SDS011;9999;48.780;9.146;2023-02-23T10:47:15;4.65;;;3.28;;
7511;SDS011;9999;48.780;9.146;2023-02-23T10:49:46;7.72;;;4.10;;
7511;SDS011;9999;48.780;9.146;2023-02-23T10:52:16;8.10;;;4.93;;
7511;SDS011;9999;48.780;9.146;2023-02-23T10:54:47;5.47;;;3.85;;
7511;SDS011;9999;48.780;9.146;2023-02-23T10:57:18;7.35;;;4.05;;
7511;SDS011;9999;48.780;9.146;2023-02-23T11:00:04;5.65;;;3.80;;
7511;SDS011;9999;48.780;9.146;2023-02-23T11:02:55;6.78;;;3.67;;
7511;SDS011;9999;48.780;9.146;2023-02-23T11:05:27;6.45;;;3.05;;
7511;SDS011;9999;48.780;9.146;2023-02-23T11:10:57;6.18;;;3.50;;
7511;SDS011;9999;48.780;9.146;2023-02-23T11:13:27;10.88;;;3.35;;
7511;SDS011;9999;48.780;9.146;2023-02-23T11:16:01;5.38;;;3.08;;
7511;SDS011;9999;48.780;9.146;2023-02-23T11:18:31;5.53;;;2.95;;
7511;SDS011;9999;48.780;9.146;2023-02-23T11:20:58;5.07;;;2.70;;
7511;SDS011;9999;48.780;9.146;2023-02-23T11:23:25;5.57;;;3.38;;
7511;SDS011;9999;48.780;9.146;2023-02-23T11:25:55;4.38;;;2.95;;
7511;SDS011;9999;48.780;9.146;2023-02-23T11:28:26;5.18;;;2.97;;
7511;SDS011;9999;48.780;9.146;2023-02-23T11:30:56;6.32;;;2.97;;
7511;SDS011;9999;48.780;9.146;2023-02-23T11:33:29;7.53;;;4.00;;
7511;SDS011;9999;48.780;9.146;2023-02-23T11:36:00;8.23;;;3.85;;
7511;SDS011;9999;48.780;9.146;2023-02-23T11:38:40;8.45;;;3.63;;
7511;SDS011;9999;48.780;9.146;2023-02-23T11:41:16;8.82;;;5.20;;
7511;SDS011;9999;48.780;9.146;2023-02-23T11:43:46;7.40;;;4.22;;
7511;SDS011;9999;48.780;9.146;2023-02-23T11:46:14;5.85;;;4.15;;
7511;SDS011;9999;48.780;9.146;2023-02-23T11:48:43;9.38;;;4.50;;
7511;SDS011;9999;48.780;9.146;2023-02-23T11:51:21;7.05;;;4.47;;
7511;SDS011;9999;48.780;9.146;2023-02-23T11:53:50;6.40;;;4.25;;
7511;SDS011;9999;48.780;9.146;2023-02-23T11:56:18;8.48;;;4.18;;
7511;SDS011;9999;48.780;9.146;2023-02-23T11:58:48;12.18;;;4.28;;
7511;SDS011;9999;48.780;9.146;2023-02-23T12:01:19;8.23;;;3.90;;
7511;SDS011;9999;48.780;9.146;2023-02-23T12:03:50;8.82;;;4.03;;
7511;SDS011;9999;48.780;9.146;2023-02-23T12:06:24;5.40;;;3.75;;
7511;SDS011;9999;48.780;9.146;2023-02-23T12:08:54;6.03;;;3.22;;
7511;SDS011;9999;48.780;9.146;2023-02-23T12:11:26;6.38;;;3.35;;
7511;SDS011;9999;48.780;9.146;2023-02-23T12:14:00;6.90;;;4.00;;
7511;SDS011;9999;48.780;9.146;2023-02-23T12:16:32;4.82;;;3.38;;
7511;SDS011;9999;48.780;9.146;2023-02-23T12:19:05;7.55;;;3.55;;
7511;SDS011;9999;48.780;9.146;2023-02-23T12:21:42;10.45;;;4.18;;
7511;SDS011;9999;48.780;9.146;2023-02-23T12:24:14;5.80;;;2.85;;
7511;SDS011;9999;48.780;9.146;2023-02-23T12:26:45;8.15;;;3.22;;
7511;SDS011;9999;48.780;9.146;2023-02-23T12:29:18;3.83;;;2.92;;
7511;SDS011;9999;48.780;9.146;2023-02-23T12:31:55;7.72;;;3.38;;
7511;SDS011;9999;48.780;9.146;2023-02-23T12:34:29;4.85;;;2.80;;
7511;SDS011;9999;48.780;9.146;2023-02-23T12:37:02;7.88;;;2.85;;
7511;SDS011;9999;48.780;9.146;2023-02-23T12:39:43;4.55;;;2.65;;
7511;SDS011;9999;48.780;9.146;2023-02-23T12:42:15;8.10;;;3.65;;
7511;SDS011;9999;48.780;9.146;2023-02-23T12:44:46;4.63;;;2.55;;
7511;SDS011;9999;48.780;9.146;2023-02-23T12:47:19;7.00;;;2.60;;
7511;SDS011;9999;48.780;9.146;2023-02-23T12:49:55;4.57;;;2.30;;
7511;SDS011;9999;48.780;9.146;2023-02-23T12:52:31;6.22;;;2.50;;
7511;SDS011;9999;48.780;9.146;2023-02-23T12:55:02;4.10;;;2.80;;
7511;SDS011;9999;48.780;9.146;2023-02-23T12:57:31;6.05;;;2.08;;
7511;SDS011;9999;48.780;9.146;2023-02-23T13:00:06;6.15;;;2.78;;
7511;SDS011;9999;48.780;9.146;2023-02-23T13:03:14;5.82;;;2.17;;
7511;SDS011;9999;48.780;9.146;2023-02-23T13:06:02;2.30;;;1.55;;
7511;SDS011;9999;48.780;9.146;2023-02-23T13:08:40;12.88;;;2.80;;
7511;SDS011;9999;48.780;9.146;2023-02-23T13:11:26;6.38;;;2.90;;
7511;SDS011;9999;48.780;9.146;2023-02-23T13:14:09;5.03;;;2.30;;
7511;SDS011;9999;48.780;9.146;2023-02-23T13:16:40;5.50;;;2.17;;
7511;SDS011;9999;48.780;9.146;2023-02-23T13:19:12;7.55;;;3.10;;
7511;SDS011;9999;48.780;9.146;2023-02-23T13:21:48;5.53;;;2.50;;
7511;SDS011;9999;48.780;9.146;2023-02-23T13:24:20;5.10;;;2.60;;
7511;SDS011;9999;48.780;9.146;2023-02-23T13:26:52;6.20;;;2.78;;
7511;SDS011;9999;48.780;9.146;2023-02-23T13:29:27;6.80;;;3.00;;
7511;SDS011;9999;48.780;9.146;2023-02-23T13:31:58;4.00;;;2.78;;
7511;SDS011;9999;48.780;9.146;2023-02-23T13:34:27;5.28;;;2.90;;
7511;SDS011;9999;48.780;9.146;2023-02-23T13:36:57;6.95;;;3.33;;
7511;SDS011;9999;48.780;9.146;2023-02-23T13:39:37;7.38;;;3.42;;
7511;SDS011;9999;48.780;9.146;2023-02-23T13:42:20;3.70;;;2.42;;
7511;SDS011;9999;48.780;9.146;2023-02-23T13:44:57;4.40;;;2.40;;
7511;SDS011;9999;48.780;9.146;2023-02-23T13:47:38;7.50;;;3.72;;
7511;SDS011;9999;48.780;9.146;2023-02-23T13:50:14;3.92;;;2.38;;
7511;SDS011;9999;48.780;9.146;2023-02-23T13:52:50;3.10;;;2.50;;
7511;SDS011;9999;48.780;9.146;2023-02-23T13:55:32;5.00;;;2.55;;
7511;SDS011;9999;48.780;9.146;2023-02-23T13:58:14;4.45;;;2.78;;
7511;SDS011;9999;48.780;9.146;2023-02-23T14:00:43;3.47;;;2.35;;
7511;SDS011;9999;48.780;9.146;2023-02-23T14:03:21;4.35;;;2.67;;
7511;SDS011;9999;48.780;9.146;2023-02-23T14:05:51;4.80;;;2.85;;
7511;SDS011;9999;48.780;9.146;2023-02-23T14:08:25;3.47;;;2.50;;
7511;SDS011;9999;48.780;9.146;2023-02-23T14:10:56;6.88;;;2.42;;
7511;SDS011;9999;48.780;9.146;2023-02-23T14:13:27;3.03;;;1.83;;
7511;SDS011;9999;48.780;9.146;2023-02-23T14:16:10;5.05;;;2.13;;
7511;SDS011;9999;48.780;9.146;2023-02-23T14:18:55;3.88;;;1.80;;
7511;SDS011;9999;48.780;9.146;2023-02-23T14:21:31;2.97;;;1.98;;
7511;SDS011;9999;48.780;9.146;2023-02-23T14:24:02;5.10;;;1.83;;
7511;SDS011;9999;48.780;9.146;2023-02-23T14:26:45;8.55;;;2.45;;
7511;SDS011;9999;48.780;9.146;2023-02-23T14:32:47;5.43;;;2.08;;
7511;SDS011;9999;48.780;9.146;2023-02-23T14:38:04;3.13;;;1.90;;
7511;SDS011;9999;48.780;9.146;2023-02-23T14:40:39;2.70;;;2.03;;
7511;SDS011;9999;48.780;9.146;2023-02-23T14:46:16;3.65;;;1.65;;
7511;SDS011;9999;48.780;9.146;2023-02-23T14:48:54;6.03;;;2.80;;
7511;SDS011;9999;48.780;9.146;2023-02-23T14:51:24;2.03;;;1.88;;
7511;SDS011;9999;48.780;9.146;2023-02-23T14:54:02;2.55;;;1.75;;
7511;SDS011;9999;48.780;9.146;2023-02-23T14:56:47;6.50;;;2.15;;
7511;SDS011;9999;48.780;9.146;2023-02-23T14:59:19;4.45;;;1.77;;
7511;SDS011;9999;48.780;9.146;2023-02-23T15:01:47;1.83;;;1.13;;
7511;SDS011;9999;48.780;9.146;2023-02-23T15:04:16;3.17;;;1.50;;
7511;SDS011;9999;48.780;9.146;2023-02-23T15:06:45;1.30;;;1.17;;
7511;SDS011;9999;48.780;9.146;2023-02-23T15:09:27;1.70;;;1.60;;
7511;SDS011;9999;48.780;9.146;2023-02-23T15:11:59;3.10;;;2.47;;
7511;SDS011;9999;48.780;9.146;2023-02-23T15:14:31;3.30;;;1.55;;
7511;SDS011;9999;48.780;9.146;2023-02-23T15:17:02;5.22;;;1.88;;
7511;SDS011;9999;48.780;9.146;2023-02-23T15:19:31;3.67;;;1.90;;
7511;SDS011;9999;48.780;9.146;2023-02-23T15:22:01;2.97;;;1.73;;
7511;SDS011;9999;48.780;9.146;2023-02-23T15:24:31;2.65;;;1.70;;
7511;SDS011;9999;48.780;9.146;2023-02-23T15:27:14;3.63;;;3.17;;
7511;SDS011;9999;48.780;9.146;2023-02-23T15:29:42;5.95;;;3.00;;
7511;SDS011;9999;48.780;9.146;2023-02-23T15:32:10;8.10;;;2.72;;
7511;SDS011;9999;48.780;9.146;2023-02-23T15:34:42;5.85;;;2.75;;
7511;SDS011;9999;48.780;9.146;2023-02-23T15:37:13;4.07;;;2.72;;
7511;SDS011;9999;48.780;9.146;2023-02-23T15:39:46;8.10;;;3.00;;
7511;SDS011;9999;48.780;9.146;2023-02-23T15:42:19;6.03;;;2.33;;
7511;SDS011;9999;48.780;9.146;2023-02-23T15:44:54;6.13;;;2.67;;
7511;SDS011;9999;48.780;9.146;2023-02-23T15:47:23;3.63;;;2.58;;
7511;SDS011;9999;48.780;9.146;2023-02-23T15:49:59;4.22;;;2.17;;
7511;SDS011;9999;48.780;9.146;2023-02-23T15:52:31;6.97;;;2.47;;
7511;SDS011;9999;48.780;9.146;2023-02-23T15:55:00;4.35;;;2.10;;
7511;SDS011;9999;48.780;9.146;2023-02-23T15:57:33;5.28;;;3.42;;
7511;SDS011;9999;48.780;9.146;2023-02-23T16:00:13;6.28;;;2.90;;
7511;SDS011;9999;48.780;9.146;2023-02-23T16:02:51;4.72;;;2.47;;